Time;durP1;ratioP1;P1;durP2;ratioP2;P2;SDS_P1;SDS_P2;PMS_P1;PMS_P2;Temp;Humidity;BMP_temperature;BMP_pressure;BME280_temperature;BME280_humidity;BME280_pressure;Samples;Min_cycle;Max_cycle;Signal;HPM_P1;HPM_P2
2022/09/15 00:01:27;;;;;;;;;;;21.00;99.90;;;;;;4210916;28;19935;-60
2022/09/15 00:03:30;;;;;;;;;;;21.00;99.90;;;;;;4212387;28;19924;-60
2022/09/15 00:05:34;;;;;;;;;;;21.00;99.90;;;;;;4212318;28;20379;-60
2022/09/15 00:07:39;;;;;;;;;;;21.00;99.90;;;;;;4212099;28;20329;-61
2022/09/15 00:09:42;;;;;;;;;;;21.10;99.90;;;;;;4195676;28;19928;-61
2022/09/15 00:11:47;;;;;;;;;;;21.10;99.90;;;;;;4203535;28;20414;-61
2022/09/15 00:13:55;;;;;;;;;;;21.10;99.90;;;;;;4218085;28;20437;-61
2022/09/15 00:15:58;;;;;;;;;;;21.10;99.90;;;;;;4212083;28;19924;-60
2022/09/15 00:18:00;;;;;;;;;;;21.10;99.90;;;;;;4212265;28;19931;-61
2022/09/15 00:20:05;;;;;;;;;;;21.20;99.90;;;;;;4210914;28;19924;-60
2022/09/15 00:22:07;;;;;;;;;;;21.20;99.90;;;;;;4212432;28;19924;-60
2022/09/15 00:24:11;;;;;;;;;;;21.20;99.90;;;;;;4207466;28;19970;-60
2022/09/15 00:26:17;;;;;;;;;;;21.10;99.90;;;;;;4195491;28;19934;-60
2022/09/15 00:28:21;;;;;;;;;;;21.10;99.90;;;;;;4195865;28;19924;-61
2022/09/15 00:30:25;;;;;;;;;;;21.20;99.90;;;;;;4198744;28;20344;-60
2022/09/15 00:32:28;;;;;;;;;;;21.20;99.90;;;;;;4212371;28;19928;-60
2022/09/15 00:34:33;;;;;;;;;;;21.10;99.90;;;;;;4212178;28;19960;-61
2022/09/15 00:36:36;;;;;;;;;;;21.10;99.90;;;;;;4211951;28;19924;-59
2022/09/15 00:38:42;;;;;;;;;;;21.00;99.90;;;;;;4212154;28;19977;-60
2022/09/15 00:40:49;;;;;;;;;;;21.00;99.90;;;;;;4212440;28;19928;-59
2022/09/15 00:42:52;;;;;;;;;;;21.00;99.90;;;;;;4212427;28;19928;-60
2022/09/15 00:45:02;;;;;;;;;;;21.00;99.90;;;;;;4228167;28;19931;-58
2022/09/15 00:47:06;;;;;;;;;;;21.00;99.90;;;;;;4223115;28;20023;-60
2022/09/15 00:49:24;;;;;;;;;;;21.00;99.90;;;;;;4212348;28;19947;-60
2022/09/15 00:51:41;;;;;;;;;;;21.00;99.90;;;;;;4215625;28;19928;-60
2022/09/15 00:53:45;;;;;;;;;;;20.90;99.90;;;;;;4215502;28;20340;-60
2022/09/15 00:56:08;;;;;;;;;;;20.90;99.90;;;;;;4215193;28;19924;-60
2022/09/15 00:58:32;;;;;;;;;;;20.80;99.90;;;;;;4215040;28;19924;-60
2022/09/15 01:00:38;;;;;;;;;;;20.70;99.90;;;;;;4215558;28;20375;-61
2022/09/15 01:02:58;;;;;;;;;;;20.80;99.90;;;;;;4215020;28;19982;-61
2022/09/15 01:05:03;;;;;;;;;;;20.80;99.90;;;;;;4215339;28;19928;-60
2022/09/15 01:07:11;;;;;;;;;;;20.80;99.90;;;;;;4215427;28;19928;-61
2022/09/15 01:09:34;;;;;;;;;;;20.80;99.90;;;;;;4215101;28;19935;-61
2022/09/15 01:11:38;;;;;;;;;;;20.70;99.90;;;;;;4220933;28;20010;-60
2022/09/15 01:13:41;;;;;;;;;;;20.70;99.90;;;;;;4215291;28;20352;-61
2022/09/15 01:16:03;;;;;;;;;;;20.70;99.90;;;;;;4214951;28;20319;-60
2022/09/15 01:18:06;;;;;;;;;;;20.60;99.90;;;;;;4213456;28;20011;-61
2022/09/15 01:20:27;;;;;;;;;;;20.60;99.90;;;;;;4215002;28;19930;-60
2022/09/15 01:22:32;;;;;;;;;;;20.50;99.90;;;;;;4215203;28;19924;-61
2022/09/15 01:24:58;;;;;;;;;;;20.50;99.90;;;;;;4215005;28;20018;-60
2022/09/15 01:27:07;;;;;;;;;;;20.60;99.90;;;;;;4215136;28;19957;-60
2022/09/15 01:29:50;;;;;;;;;;;20.50;99.90;;;;;;4214772;28;20323;-60
2022/09/15 01:34:30;;;;;;;;;;;20.20;99.90;;;;;;4214329;28;19924;-60
2022/09/15 01:36:46;;;;;;;;;;;20.00;99.90;;;;;;4214561;28;20030;-60
2022/09/15 01:39:04;;;;;;;;;;;20.00;99.90;;;;;;4214665;28;19935;-60
2022/09/15 01:41:11;;;;;;;;;;;20.00;99.90;;;;;;4229891;28;19924;-59
2022/09/15 01:43:15;;;;;;;;;;;20.00;99.90;;;;;;4222648;27;19924;-60
2022/09/15 01:45:24;;;;;;;;;;;20.00;99.90;;;;;;4215061;28;19981;-59
2022/09/15 01:47:28;;;;;;;;;;;20.00;99.90;;;;;;4205688;28;19968;-59
2022/09/15 01:49:53;;;;;;;;;;;20.10;99.90;;;;;;4214063;28;20362;-60
2022/09/15 01:51:56;;;;;;;;;;;20.20;99.90;;;;;;4214599;28;19936;-60
2022/09/15 01:54:01;;;;;;;;;;;20.30;99.90;;;;;;4213191;28;19924;-59
2022/09/15 01:56:07;;;;;;;;;;;20.40;99.90;;;;;;4214273;28;19978;-59
2022/09/15 01:58:09;;;;;;;;;;;20.40;99.90;;;;;;4214457;28;19934;-60
2022/09/15 02:00:12;;;;;;;;;;;20.50;99.90;;;;;;4214396;28;19924;-59
2022/09/15 02:02:36;;;;;;;;;;;20.40;99.90;;;;;;4214137;28;20435;-60
2022/09/15 02:04:45;;;;;;;;;;;20.40;99.90;;;;;;4214175;28;19935;-59
2022/09/15 02:06:54;;;;;;;;;;;20.40;99.90;;;;;;4214448;28;19928;-60
2022/09/15 02:09:00;;;;;;;;;;;20.50;99.90;;;;;;4213769;28;20291;-60
2022/09/15 02:11:11;;;;;;;;;;;20.40;99.90;;;;;;4214049;28;19924;-60
2022/09/15 02:13:36;;;;;;;;;;;20.40;99.90;;;;;;4214401;28;19924;-60
2022/09/15 02:15:45;;;;;;;;;;;20.40;99.90;;;;;;4214011;28;19935;-61
2022/09/15 02:17:52;;;;;;;;;;;20.40;99.90;;;;;;4214111;28;19924;-60
2022/09/15 02:20:02;;;;;;;;;;;20.40;99.90;;;;;;4214008;28;19928;-59
2022/09/15 02:22:15;;;;;;;;;;;20.50;99.90;;;;;;4213926;27;19934;-59
2022/09/15 02:24:20;;;;;;;;;;;20.50;99.90;;;;;;4213994;28;20332;-60
2022/09/15 02:26:25;;;;;;;;;;;20.50;99.90;;;;;;4213845;28;19928;-60
2022/09/15 02:28:30;;;;;;;;;;;20.50;99.90;;;;;;4213596;28;20414;-60
2022/09/15 02:30:45;;;;;;;;;;;20.50;99.90;;;;;;4213915;28;19924;-60
2022/09/15 02:32:53;;;;;;;;;;;20.60;99.90;;;;;;4213914;28;19958;-60
2022/09/15 02:34:57;;;;;;;;;;;20.60;99.90;;;;;;4213483;28;19939;-60
2022/09/15 02:37:00;;;;;;;;;;;20.70;99.90;;;;;;4220809;28;19928;-60
2022/09/15 02:39:06;;;;;;;;;;;20.60;99.90;;;;;;4213761;28;20334;-60
2022/09/15 02:41:12;;;;;;;;;;;20.60;99.90;;;;;;4213765;28;19987;-60
2022/09/15 02:43:16;;;;;;;;;;;20.60;99.90;;;;;;4213262;28;19924;-60
2022/09/15 02:45:19;;;;;;;;;;;20.70;99.90;;;;;;4214176;28;20014;-60
2022/09/15 02:47:22;;;;;;;;;;;20.70;99.90;;;;;;4212734;28;19928;-60
2022/09/15 02:49:36;;;;;;;;;;;20.70;99.90;;;;;;4213227;28;19928;-61
2022/09/15 02:51:38;;;;;;;;;;;20.70;99.90;;;;;;4213766;28;19978;-60
2022/09/15 02:53:45;;;;;;;;;;;20.70;99.90;;;;;;4213681;28;20015;-60
2022/09/15 02:55:51;;;;;;;;;;;20.80;99.90;;;;;;4213114;28;20292;-60
2022/09/15 02:57:55;;;;;;;;;;;20.80;99.90;;;;;;4213615;28;20349;-60
2022/09/15 03:00:12;;;;;;;;;;;20.80;99.90;;;;;;4213333;28;19924;-60
2022/09/15 03:02:19;;;;;;;;;;;20.70;99.90;;;;;;4213336;28;20031;-60
2022/09/15 03:04:22;;;;;;;;;;;20.60;99.90;;;;;;4218863;28;19950;-60
2022/09/15 03:06:29;;;;;;;;;;;20.50;99.90;;;;;;4213426;28;19928;-60
2022/09/15 03:08:34;;;;;;;;;;;20.40;99.90;;;;;;4213569;28;19942;-60
2022/09/15 03:10:49;;;;;;;;;;;20.40;99.90;;;;;;4213664;28;19977;-60
2022/09/15 03:12:52;;;;;;;;;;;20.40;99.90;;;;;;4212469;28;19928;-60
2022/09/15 03:14:55;;;;;;;;;;;20.40;99.90;;;;;;4213442;28;19959;-60
2022/09/15 03:17:00;;;;;;;;;;;20.50;99.90;;;;;;4212914;28;20014;-60
2022/09/15 03:19:05;;;;;;;;;;;20.50;99.90;;;;;;4212866;28;19928;-60
2022/09/15 03:21:10;;;;;;;;;;;20.40;99.90;;;;;;4211129;28;19990;-60
2022/09/15 03:23:13;;;;;;;;;;;20.40;99.90;;;;;;4196362;28;20033;-60
2022/09/15 03:25:16;;;;;;;;;;;20.40;99.90;;;;;;4186589;28;20277;-60
2022/09/15 03:27:18;;;;;;;;;;;20.40;99.90;;;;;;4213562;28;19928;-61
2022/09/15 03:29:21;;;;;;;;;;;20.50;99.90;;;;;;4212759;28;19931;-60
2022/09/15 03:31:24;;;;;;;;;;;20.40;99.90;;;;;;4212840;28;19924;-59
2022/09/15 03:33:26;;;;;;;;;;;20.30;99.90;;;;;;4226596;28;19959;-59
2022/09/15 03:35:29;;;;;;;;;;;20.30;99.90;;;;;;4215222;27;19924;-59
2022/09/15 03:37:33;;;;;;;;;;;20.20;99.90;;;;;;4213097;28;19924;-58
2022/09/15 03:39:42;;;;;;;;;;;20.10;99.90;;;;;;4213057;28;20315;-60
2022/09/15 03:41:48;;;;;;;;;;;20.10;99.90;;;;;;4212561;28;20030;-59
2022/09/15 03:43:51;;;;;;;;;;;20.20;99.90;;;;;;4212766;28;19924;-58
2022/09/15 03:46:02;;;;;;;;;;;20.20;99.90;;;;;;4218113;28;19928;-60
2022/09/15 03:48:06;;;;;;;;;;;20.30;99.90;;;;;;4212186;28;19938;-59
2022/09/15 03:50:12;;;;;;;;;;;20.50;99.90;;;;;;4211031;28;19928;-59
2022/09/15 03:52:14;;;;;;;;;;;20.60;99.90;;;;;;4211546;28;19942;-60
2022/09/15 03:54:17;;;;;;;;;;;20.70;99.90;;;;;;4212461;28;19932;-60
2022/09/15 03:56:27;;;;;;;;;;;20.70;99.90;;;;;;4211061;28;19928;-60
2022/09/15 03:58:29;;;;;;;;;;;20.70;99.90;;;;;;4195762;28;19991;-60
2022/09/15 04:00:33;;;;;;;;;;;20.70;99.90;;;;;;4205615;28;19928;-59
2022/09/15 04:02:35;;;;;;;;;;;20.80;99.90;;;;;;4212492;28;19935;-59
2022/09/15 04:04:37;;;;;;;;;;;20.90;99.90;;;;;;4212699;28;19977;-60
2022/09/15 04:06:40;;;;;;;;;;;20.90;99.90;;;;;;4212338;28;19924;-59
2022/09/15 04:08:45;;;;;;;;;;;20.90;99.90;;;;;;4212720;28;19924;-60
2022/09/15 04:10:47;;;;;;;;;;;20.90;99.90;;;;;;4196577;28;19974;-60
2022/09/15 04:12:52;;;;;;;;;;;20.90;99.90;;;;;;4201635;28;19924;-60
2022/09/15 04:14:54;;;;;;;;;;;20.90;99.90;;;;;;4212529;28;19932;-59
2022/09/15 04:16:59;;;;;;;;;;;20.90;99.90;;;;;;4211992;28;19974;-59
2022/09/15 04:19:03;;;;;;;;;;;20.90;99.90;;;;;;4212308;28;20383;-60
2022/09/15 04:21:09;;;;;;;;;;;20.90;99.90;;;;;;4212218;28;19959;-59
2022/09/15 04:23:13;;;;;;;;;;;20.80;99.90;;;;;;4210718;28;19930;-58
2022/09/15 04:25:16;;;;;;;;;;;20.80;99.90;;;;;;4212537;28;19928;-60
2022/09/15 04:27:19;;;;;;;;;;;20.80;99.90;;;;;;4195675;28;19925;-59
2022/09/15 04:29:35;;;;;;;;;;;20.70;99.90;;;;;;4207310;28;19970;-60
2022/09/15 04:31:43;;;;;;;;;;;20.70;99.90;;;;;;4210741;28;19968;-59
2022/09/15 04:33:47;;;;;;;;;;;20.60;99.90;;;;;;4212168;28;19934;-59
2022/09/15 04:35:56;;;;;;;;;;;20.60;99.90;;;;;;4212140;28;19936;-60
2022/09/15 04:37:59;;;;;;;;;;;20.60;99.90;;;;;;4212001;28;19932;-59
2022/09/15 04:40:12;;;;;;;;;;;20.60;99.90;;;;;;4218151;28;19928;-61
2022/09/15 04:42:15;;;;;;;;;;;20.60;99.90;;;;;;4212311;28;20022;-59
2022/09/15 04:44:18;;;;;;;;;;;20.60;99.90;;;;;;4211870;28;19924;-60
2022/09/15 04:46:40;;;;;;;;;;;20.60;99.90;;;;;;4211210;28;20643;-60
2022/09/15 04:48:44;;;;;;;;;;;20.60;99.90;;;;;;4210710;28;20388;-59
2022/09/15 04:50:48;;;;;;;;;;;20.50;99.90;;;;;;4211793;28;19924;-60
2022/09/15 04:52:51;;;;;;;;;;;20.60;99.90;;;;;;4212222;28;19934;-60
2022/09/15 04:54:56;;;;;;;;;;;20.60;99.90;;;;;;4211929;28;20345;-60
2022/09/15 04:56:59;;;;;;;;;;;20.60;99.90;;;;;;4210670;28;19928;-60
2022/09/15 04:59:03;;;;;;;;;;;20.60;99.90;;;;;;4211810;28;19935;-59
2022/09/15 05:01:09;;;;;;;;;;;20.60;99.90;;;;;;4211797;28;19931;-60
2022/09/15 05:03:16;;;;;;;;;;;20.60;99.90;;;;;;4212088;28;19932;-60
2022/09/15 05:05:19;;;;;;;;;;;20.60;99.90;;;;;;4212091;28;20350;-60
2022/09/15 05:07:23;;;;;;;;;;;20.60;99.90;;;;;;4210639;28;19928;-60
2022/09/15 05:09:28;;;;;;;;;;;20.50;99.90;;;;;;4212077;28;19924;-60
2022/09/15 05:11:33;;;;;;;;;;;20.50;99.90;;;;;;4195628;28;19967;-60
2022/09/15 05:13:36;;;;;;;;;;;20.50;99.90;;;;;;4202749;28;19925;-60
2022/09/15 05:15:40;;;;;;;;;;;20.50;99.90;;;;;;4212186;28;20015;-60
2022/09/15 05:17:48;;;;;;;;;;;20.60;99.90;;;;;;4210457;28;19936;-59
2022/09/15 05:19:56;;;;;;;;;;;20.70;99.90;;;;;;4217773;28;20295;-60
2022/09/15 05:21:58;;;;;;;;;;;20.70;99.90;;;;;;4211715;28;20284;-60
2022/09/15 05:24:01;;;;;;;;;;;20.60;99.90;;;;;;4211498;28;19993;-60
2022/09/15 05:26:04;;;;;;;;;;;20.50;99.90;;;;;;4221496;28;20051;-60
2022/09/15 05:28:07;;;;;;;;;;;20.40;99.90;;;;;;4211609;28;19928;-60
2022/09/15 05:30:10;;;;;;;;;;;20.40;99.90;;;;;;4211558;28;20031;-59
2022/09/15 05:32:33;;;;;;;;;;;20.30;99.90;;;;;;4204111;28;19932;-58
2022/09/15 05:34:53;;;;;;;;;;;20.20;99.90;;;;;;4203713;28;19929;-60
2022/09/15 05:36:56;;;;;;;;;;;20.10;99.90;;;;;;4212631;28;19924;-60
2022/09/15 05:39:00;;;;;;;;;;;20.10;99.90;;;;;;4214608;28;20022;-60
2022/09/15 05:41:23;;;;;;;;;;;20.00;99.90;;;;;;4214432;28;19924;-60
2022/09/15 05:43:29;;;;;;;;;;;20.00;99.90;;;;;;4196737;28;20500;-60
2022/09/15 05:45:32;;;;;;;;;;;19.90;99.90;;;;;;4205704;28;19924;-60
2022/09/15 05:47:35;;;;;;;;;;;19.90;99.90;;;;;;4212444;28;19935;-59
2022/09/15 05:49:37;;;;;;;;;;;19.90;99.90;;;;;;4213126;28;19932;-60
2022/09/15 05:51:45;;;;;;;;;;;19.90;99.90;;;;;;4214478;28;19954;-60
2022/09/15 05:53:49;;;;;;;;;;;19.80;99.90;;;;;;4214375;28;19974;-60
2022/09/15 05:55:54;;;;;;;;;;;19.80;99.90;;;;;;4200182;28;20642;-60
2022/09/15 05:57:57;;;;;;;;;;;19.90;99.90;;;;;;4202625;28;19928;-60
2022/09/15 05:59:59;;;;;;;;;;;19.90;99.90;;;;;;4214550;28;19932;-60
2022/09/15 06:02:21;;;;;;;;;;;19.90;99.90;;;;;;4214044;28;19924;-60
2022/09/15 06:04:24;;;;;;;;;;;20.00;99.90;;;;;;4214339;28;19928;-60
2022/09/15 06:06:26;;;;;;;;;;;20.10;99.90;;;;;;4214346;28;19928;-60
2022/09/15 06:08:54;;;;;;;;;;;20.00;99.90;;;;;;4214170;28;19928;-60
2022/09/15 06:11:01;;;;;;;;;;;20.00;99.90;;;;;;4214094;28;19928;-60
2022/09/15 06:13:04;;;;;;;;;;;20.10;99.90;;;;;;4214111;28;19935;-60
2022/09/15 06:15:07;;;;;;;;;;;20.20;99.90;;;;;;4214222;28;19924;-60
2022/09/15 06:17:11;;;;;;;;;;;20.40;99.90;;;;;;4213635;28;19970;-60
2022/09/15 06:19:15;;;;;;;;;;;20.40;99.90;;;;;;4214240;28;19924;-60
2022/09/15 06:21:18;;;;;;;;;;;20.40;99.90;;;;;;4213212;28;19927;-60
2022/09/15 06:23:20;;;;;;;;;;;20.30;99.90;;;;;;4223082;28;19928;-59
2022/09/15 06:25:23;;;;;;;;;;;20.30;99.90;;;;;;4197536;28;20015;-59
2022/09/15 06:27:25;;;;;;;;;;;20.30;99.90;;;;;;4208570;28;20027;-60
2022/09/15 06:29:27;;;;;;;;;;;20.20;99.90;;;;;;4214116;28;19962;-60
2022/09/15 06:31:31;;;;;;;;;;;20.10;99.90;;;;;;4213872;28;19932;-60
2022/09/15 06:33:35;;;;;;;;;;;20.00;99.90;;;;;;4212256;28;20014;-60
2022/09/15 06:35:58;;;;;;;;;;;20.00;99.90;;;;;;4213218;28;20471;-59
2022/09/15 06:38:01;;;;;;;;;;;20.10;99.90;;;;;;4212400;28;19936;-59
2022/09/15 06:40:06;;;;;;;;;;;20.40;99.90;;;;;;4212514;28;19928;-60
2022/09/15 06:42:09;;;;;;;;;;;20.60;99.90;;;;;;4213561;28;19924;-60
2022/09/15 06:44:16;;;;;;;;;;;20.50;99.90;;;;;;4212398;28;19968;-60
2022/09/15 06:46:38;;;;;;;;;;;20.50;99.90;;;;;;4212863;28;19932;-59
2022/09/15 06:48:41;;;;;;;;;;;20.50;99.90;;;;;;4211167;28;20027;-60
2022/09/15 06:50:53;;;;;;;;;;;20.40;99.90;;;;;;4213664;28;19928;-60
2022/09/15 06:52:56;;;;;;;;;;;20.50;99.90;;;;;;4213512;28;19978;-60
2022/09/15 06:55:01;;;;;;;;;;;20.50;99.90;;;;;;4212122;28;20450;-60
2022/09/15 06:57:04;;;;;;;;;;;20.50;99.90;;;;;;4213638;28;19924;-59
2022/09/15 06:59:10;;;;;;;;;;;20.50;99.90;;;;;;4212202;28;19924;-60
2022/09/15 07:01:32;;;;;;;;;;;20.40;99.90;;;;;;4213240;28;20401;-60
2022/09/15 07:03:41;;;;;;;;;;;20.60;99.90;;;;;;4213568;28;19924;-60
2022/09/15 07:05:46;;;;;;;;;;;20.80;99.90;;;;;;4213504;28;19983;-61
2022/09/15 07:07:48;;;;;;;;;;;20.90;99.90;;;;;;4192725;28;20041;-60
2022/09/15 07:09:51;;;;;;;;;;;21.10;99.90;;;;;;4196505;28;19973;-60
2022/09/15 07:11:55;;;;;;;;;;;21.20;99.90;;;;;;4206471;28;19982;-60
2022/09/15 07:13:57;;;;;;;;;;;21.10;99.90;;;;;;4213363;28;20384;-60
2022/09/15 07:16:20;;;;;;;;;;;21.00;99.90;;;;;;4212815;28;19924;-60
2022/09/15 07:18:25;;;;;;;;;;;21.00;99.90;;;;;;4215521;28;19960;-60
2022/09/15 07:20:40;;;;;;;;;;;21.20;99.90;;;;;;4213252;28;20026;-60
2022/09/15 07:22:43;;;;;;;;;;;21.10;99.90;;;;;;4213188;28;19924;-60
2022/09/15 07:24:46;;;;;;;;;;;21.20;99.90;;;;;;4213190;28;20050;-60
2022/09/15 07:26:51;;;;;;;;;;;21.20;99.90;;;;;;4211682;28;19924;-59
2022/09/15 07:28:56;;;;;;;;;;;21.20;99.90;;;;;;4211614;28;19928;-60
2022/09/15 07:31:05;;;;;;;;;;;21.10;99.90;;;;;;4202706;28;19974;-60
2022/09/15 07:33:09;;;;;;;;;;;21.20;99.90;;;;;;4196655;28;19928;-60
2022/09/15 07:35:21;;;;;;;;;;;21.20;99.90;;;;;;4211183;28;20280;-60
2022/09/15 07:37:23;;;;;;;;;;;21.10;99.90;;;;;;4212784;28;19931;-60
2022/09/15 07:39:25;;;;;;;;;;;21.10;99.90;;;;;;4212503;28;19924;-60
2022/09/15 07:41:29;;;;;;;;;;;21.20;99.90;;;;;;4213052;28;19928;-60
2022/09/15 07:43:32;;;;;;;;;;;21.30;99.90;;;;;;4212721;28;19947;-60
2022/09/15 07:45:35;;;;;;;;;;;21.40;99.90;;;;;;4212831;28;19928;-59
2022/09/15 07:47:37;;;;;;;;;;;21.50;99.90;;;;;;4212141;28;20015;-60
2022/09/15 07:49:42;;;;;;;;;;;21.60;99.90;;;;;;4212652;28;20436;-60
2022/09/15 07:51:49;;;;;;;;;;;21.70;99.90;;;;;;4211196;28;20393;-60
2022/09/15 07:53:53;;;;;;;;;;;21.60;99.90;;;;;;4212422;28;19935;-60
2022/09/15 07:56:03;;;;;;;;;;;21.60;99.90;;;;;;4206940;28;20308;-60
2022/09/15 07:58:07;;;;;;;;;;;21.60;99.90;;;;;;4195917;28;19952;-60
2022/09/15 08:00:09;;;;;;;;;;;21.60;99.90;;;;;;4209065;28;20027;-60
2022/09/15 08:02:15;;;;;;;;;;;21.40;99.90;;;;;;4212388;28;19950;-60
2022/09/15 08:04:17;;;;;;;;;;;21.50;99.90;;;;;;4212605;28;20182;-60
2022/09/15 08:06:21;;;;;;;;;;;21.60;99.90;;;;;;4212728;28;20284;-60
2022/09/15 08:08:25;;;;;;;;;;;21.50;99.90;;;;;;4212127;28;19966;-60
2022/09/15 08:10:28;;;;;;;;;;;21.60;99.90;;;;;;4212830;28;19928;-60
2022/09/15 08:12:31;;;;;;;;;;;21.60;99.90;;;;;;4212261;28;19924;-60
2022/09/15 08:14:34;;;;;;;;;;;21.70;99.90;;;;;;4224279;28;19931;-60
2022/09/15 08:16:37;;;;;;;;;;;21.80;99.90;;;;;;4212308;28;20429;-60
2022/09/15 08:18:41;;;;;;;;;;;21.80;99.90;;;;;;4212326;28;19973;-60
2022/09/15 08:20:45;;;;;;;;;;;21.90;99.90;;;;;;4212219;28;20318;-60
2022/09/15 08:22:48;;;;;;;;;;;22.10;99.90;;;;;;4212531;28;20379;-60
2022/09/15 08:24:52;;;;;;;;;;;22.20;99.90;;;;;;4211863;28;19967;-59
2022/09/15 08:27:03;;;;;;;;;;;22.20;99.90;;;;;;4217902;28;20411;-60
2022/09/15 08:29:06;;;;;;;;;;;22.30;99.90;;;;;;4211870;28;20026;-60
2022/09/15 08:31:10;;;;;;;;;;;22.40;99.90;;;;;;4212063;28;19932;-60
2022/09/15 08:33:13;;;;;;;;;;;22.60;99.90;;;;;;4212210;28;19956;-61
2022/09/15 08:35:18;;;;;;;;;;;22.70;99.90;;;;;;4211705;28;20019;-59
2022/09/15 08:37:25;;;;;;;;;;;22.70;99.90;;;;;;4210984;28;20288;-59
2022/09/15 08:39:29;;;;;;;;;;;22.50;99.90;;;;;;4212002;28;19932;-60
2022/09/15 08:41:32;;;;;;;;;;;22.50;99.90;;;;;;4212144;28;19928;-60
2022/09/15 08:43:36;;;;;;;;;;;22.70;99.90;;;;;;4212005;28;19931;-60
2022/09/15 08:45:47;;;;;;;;;;;22.60;99.90;;;;;;4212282;28;19938;-60
2022/09/15 08:48:03;;;;;;;;;;;22.70;99.90;;;;;;4211406;28;19926;-60
2022/09/15 08:50:19;;;;;;;;;;;22.80;99.90;;;;;;4212491;28;19928;-60
2022/09/15 08:52:59;;;;;;;;;;;23.00;99.90;;;;;;4212174;28;19924;-58
2022/09/15 08:55:04;;;;;;;;;;;23.10;99.90;;;;;;4176804;28;20384;-60
2022/09/15 08:57:12;;;;;;;;;;;22.90;99.90;;;;;;4176744;28;19978;-60
2022/09/15 08:59:15;;;;;;;;;;;22.90;99.90;;;;;;4176794;28;19929;-60
2022/09/15 09:01:43;;;;;;;;;;;22.80;99.90;;;;;;4177200;28;19937;-60
2022/09/15 09:03:47;;;;;;;;;;;22.90;99.90;;;;;;4154567;28;19960;-60
2022/09/15 09:05:56;;;;;;;;;;;23.10;99.90;;;;;;4176816;28;19941;-59
2022/09/15 09:08:26;;;;;;;;;;;23.20;99.90;;;;;;4177133;28;20378;-60
2022/09/15 09:10:29;;;;;;;;;;;22.90;99.90;;;;;;4127136;28;19953;-59
2022/09/15 09:12:37;;;;;;;;;;;23.00;99.90;;;;;;4177688;28;20015;-60
2022/09/15 09:14:57;;;;;;;;;;;23.10;99.90;;;;;;4179776;28;20424;-60
2022/09/15 09:17:02;;;;;;;;;;;23.30;99.90;;;;;;4179699;28;19929;-60
2022/09/15 09:19:15;;;;;;;;;;;23.70;99.90;;;;;;4179573;28;19929;-59
2022/09/15 09:21:17;;;;;;;;;;;23.70;99.90;;;;;;4179870;28;19925;-60
2022/09/15 09:23:22;;;;;;;;;;;23.80;99.90;;;;;;4179463;28;20408;-60
2022/09/15 09:25:25;;;;;;;;;;;23.70;99.90;;;;;;4182762;28;20412;-60
2022/09/15 09:27:32;;;;;;;;;;;23.90;99.90;;;;;;4198467;28;20344;-60
2022/09/15 09:29:41;;;;;;;;;;;23.60;99.90;;;;;;4212421;28;19977;-60
2022/09/15 09:31:47;;;;;;;;;;;23.60;99.90;;;;;;4213414;28;20435;-60
2022/09/15 09:34:05;;;;;;;;;;;23.60;99.90;;;;;;4210411;28;19981;-59
2022/09/15 09:36:07;;;;;;;;;;;23.60;99.90;;;;;;4212953;28;19925;-59
2022/09/15 09:38:18;;;;;;;;;;;23.50;99.90;;;;;;4208272;28;20200;-60
2022/09/15 09:40:21;;;;;;;;;;;23.50;99.90;;;;;;4207889;28;20347;-59
2022/09/15 09:42:27;;;;;;;;;;;23.50;99.90;;;;;;4208556;28;19979;-60
2022/09/15 09:44:33;;;;;;;;;;;23.50;99.90;;;;;;4211853;28;19924;-60
2022/09/15 09:46:38;;;;;;;;;;;23.50;99.90;;;;;;4211487;28;20284;-61
2022/09/15 09:48:53;;;;;;;;;;;23.40;99.90;;;;;;4214399;28;19924;-60
2022/09/15 09:50:55;;;;;;;;;;;23.40;99.90;;;;;;4214349;28;19982;-60
2022/09/15 09:52:58;;;;;;;;;;;23.40;99.90;;;;;;4214159;28;19947;-60
2022/09/15 09:55:19;;;;;;;;;;;23.40;99.90;;;;;;4212195;28;19932;-60
2022/09/15 09:57:29;;;;;;;;;;;23.50;99.90;;;;;;4205800;28;19931;-60
2022/09/15 09:59:34;;;;;;;;;;;23.60;99.90;;;;;;4197769;28;19966;-60
2022/09/15 10:01:36;;;;;;;;;;;23.50;99.90;;;;;;4213370;28;19977;-60
2022/09/15 10:03:38;;;;;;;;;;;23.40;99.90;;;;;;4214072;28;19932;-60
2022/09/15 10:05:40;;;;;;;;;;;23.40;99.90;;;;;;4211548;28;19932;-59
2022/09/15 10:07:44;;;;;;;;;;;23.30;99.90;;;;;;4209855;28;19928;-60
2022/09/15 10:09:57;;;;;;;;;;;23.40;99.90;;;;;;4210107;28;19981;-60
2022/09/15 10:12:03;;;;;;;;;;;23.50;99.90;;;;;;4208241;28;19931;-60
2022/09/15 10:14:05;;;;;;;;;;;23.30;99.90;;;;;;4206013;28;19940;-60
2022/09/15 10:16:07;;;;;;;;;;;23.30;99.90;;;;;;4207425;28;20906;-60
2022/09/15 10:18:31;;;;;;;;;;;23.30;99.90;;;;;;4204484;28;20295;-60
2022/09/15 10:20:48;;;;;;;;;;;23.30;99.90;;;;;;4204681;28;19939;-60
2022/09/15 10:22:51;;;;;;;;;;;23.30;99.90;;;;;;4208960;28;19947;-60
2022/09/15 10:24:53;;;;;;;;;;;23.40;99.90;;;;;;4203416;28;19928;-60
2022/09/15 10:27:06;;;;;;;;;;;23.50;99.90;;;;;;4208908;28;19960;-60
2022/09/15 10:29:16;;;;;;;;;;;23.50;99.90;;;;;;4204261;28;19931;-60
2022/09/15 10:31:29;;;;;;;;;;;23.60;99.90;;;;;;4214336;28;20363;-60
2022/09/15 10:33:34;;;;;;;;;;;23.60;99.90;;;;;;4212741;28;19934;-60
2022/09/15 10:35:40;;;;;;;;;;;23.40;99.90;;;;;;4206469;28;20516;-60
2022/09/15 10:37:54;;;;;;;;;;;23.30;99.90;;;;;;4209291;28;19928;-60
2022/09/15 10:40:03;;;;;;;;;;;23.30;99.90;;;;;;4207810;28;20347;-61
2022/09/15 10:42:25;;;;;;;;;;;23.00;99.90;;;;;;4210816;28;19978;-60
2022/09/15 10:44:45;;;;;;;;;;;22.60;99.90;;;;;;4213739;28;20481;-60
2022/09/15 10:47:06;;;;;;;;;;;22.20;99.90;;;;;;4213504;28;20375;-60
2022/09/15 10:49:17;;;;;;;;;;;22.10;99.90;;;;;;4213525;28;19981;-61
2022/09/15 10:51:27;;;;;;;;;;;22.00;99.90;;;;;;4213579;28;19924;-61
2022/09/15 10:53:47;;;;;;;;;;;22.00;99.90;;;;;;4213687;28;19928;-59
2022/09/15 10:55:49;;;;;;;;;;;21.80;99.90;;;;;;4212313;28;19928;-61
2022/09/15 10:58:26;;;;;;;;;;;21.70;99.90;;;;;;4214047;28;19928;-60
2022/09/15 11:00:34;;;;;;;;;;;21.70;99.90;;;;;;4189959;28;20334;-60
2022/09/15 11:02:54;;;;;;;;;;;21.70;99.90;;;;;;4213734;28;19927;-62
2022/09/15 11:05:25;;;;;;;;;;;21.70;99.90;;;;;;4213705;28;19928;-61
2022/09/15 11:07:37;;;;;;;;;;;21.70;99.90;;;;;;4187914;28;19929;-61
2022/09/15 11:09:44;;;;;;;;;;;21.60;99.90;;;;;;4177530;28;19928;-60
2022/09/15 11:11:51;;;;;;;;;;;21.60;99.90;;;;;;4177471;28;20440;-61
2022/09/15 11:14:12;;;;;;;;;;;21.50;99.90;;;;;;4167789;28;19963;-60
2022/09/15 11:16:34;;;;;;;;;;;21.60;99.90;;;;;;4175770;28;20019;-60
2022/09/15 11:18:36;;;;;;;;;;;21.60;99.90;;;;;;4142040;28;19925;-60
2022/09/15 11:20:54;;;;;;;;;;;21.60;99.90;;;;;;4170108;28;20400;-60
2022/09/15 11:22:57;;;;;;;;;;;21.60;99.90;;;;;;4177620;28;19933;-60
2022/09/15 11:25:09;;;;;;;;;;;21.70;99.90;;;;;;4177668;28;20356;-60
2022/09/15 11:27:24;;;;;;;;;;;21.60;99.90;;;;;;4177669;28;19979;-60
2022/09/15 11:29:51;;;;;;;;;;;21.70;99.90;;;;;;4177789;28;20343;-60
2022/09/15 11:32:10;;;;;;;;;;;21.80;99.90;;;;;;4177781;28;19977;-60
2022/09/15 11:34:32;;;;;;;;;;;21.80;99.90;;;;;;4176880;28;19929;-60
2022/09/15 11:36:38;;;;;;;;;;;21.90;99.90;;;;;;4173524;28;19928;-59
2022/09/15 11:38:46;;;;;;;;;;;21.90;99.90;;;;;;4177654;28;19932;-60
2022/09/15 11:41:11;;;;;;;;;;;21.90;99.90;;;;;;4177848;28;19932;-60
2022/09/15 11:43:17;;;;;;;;;;;21.90;99.90;;;;;;4172766;28;20471;-60
2022/09/15 11:45:23;;;;;;;;;;;22.00;99.90;;;;;;4199052;28;20015;-60
2022/09/15 11:47:27;;;;;;;;;;;22.00;99.90;;;;;;4212507;28;19924;-59
2022/09/15 11:49:38;;;;;;;;;;;22.10;99.90;;;;;;4212932;28;19928;-61
2022/09/15 11:51:43;;;;;;;;;;;22.10;99.90;;;;;;4212787;28;19989;-61
2022/09/15 11:53:51;;;;;;;;;;;22.10;99.90;;;;;;4212977;28;20450;-59
2022/09/15 11:56:11;;;;;;;;;;;22.10;99.90;;;;;;4202079;28;19991;-60
2022/09/15 11:58:21;;;;;;;;;;;22.00;99.90;;;;;;4196123;28;19924;-60
2022/09/15 12:00:23;;;;;;;;;;;22.10;99.90;;;;;;4196238;28;19928;-60
2022/09/15 12:02:29;;;;;;;;;;;22.10;99.90;;;;;;4206573;28;19924;-61
2022/09/15 12:04:37;;;;;;;;;;;22.10;99.90;;;;;;4229888;28;19932;-60
2022/09/15 12:06:52;;;;;;;;;;;22.10;99.90;;;;;;4229526;28;20447;-60
2022/09/15 12:09:02;;;;;;;;;;;22.00;99.90;;;;;;4228420;28;19931;-60
2022/09/15 12:11:16;;;;;;;;;;;22.00;99.90;;;;;;4229309;28;20372;-59
2022/09/15 12:13:19;;;;;;;;;;;22.00;99.90;;;;;;4229679;28;19935;-60
2022/09/15 12:15:26;;;;;;;;;;;22.00;99.90;;;;;;4229769;28;19924;-60
2022/09/15 12:17:31;;;;;;;;;;;22.00;99.90;;;;;;4229421;28;19972;-60
2022/09/15 12:19:32;;;;;;;;;;;22.00;99.90;;;;;;4229737;28;19923;-60
2022/09/15 12:21:50;;;;;;;;;;;22.00;99.90;;;;;;4229174;28;19924;-60
2022/09/15 12:24:18;;;;;;;;;;;22.00;99.90;;;;;;4229584;27;20386;-60
2022/09/15 12:26:22;;;;;;;;;;;22.10;99.90;;;;;;4227209;28;19989;-59